»·PEaware :: N737M KABQ-KASE

N737M :: KABQ-KASE

FLIGHT INFORMATION

Flight Status: Arrived
Operator: Privately registered:
United States
More flights under this callsign
Pilot: Patricio R. (14780)
Aircraft: BOEING 737-800
(B738)
More flights by this aircraft type
Origin: KABQ Albuquerque Intl Sunport
United States
Destination: KASE Aspen-Pitkin Co/Sardy
United States
More flights between these airports :: More routes between these airports
Route: +JEMEZ3 JEMEZ MTJ V361 DBL
File this flight plan on PilotEdge
Remarks: PBN / A1B1C1D1S1S2 DOF / 171213 REG / N737M EET / KZDV0015 PER / C RMK / TCAS SIMBRIEF
Altitude:
(Current/Filed)
36,000ft
Speed:
(Current/Filed)
452kts
Departed: 13-Dec-17 09:59 AM
Arrived: 13-Dec-17 10:59 AM
Distance/Time
Traveled:
253nm/0:59
Distance/Time
To Go:
Arrived

Flight Plot

Page will automatically refresh every two minutes.

Flight plan parsing failed; only flown route is shown


Map Options




Map Legend


Flown Route
Filed Route
Departure Airport
Arrival Airport
Navaid (VOR, NDB)
Fix

Horizontal Profiles

Position Reports

Time Latitude Longitude Heading Altitude Ground
Speed
13-Dec-17 09:42 35.030997 -106.624282 314 5316ft 0kts
13-Dec-17 09:43 35.030997 -106.624282 314 5316ft 0kts
13-Dec-17 09:44 35.030997 -106.624282 314 5316ft 0kts
13-Dec-17 09:45 35.030997 -106.624282 314 5316ft 0kts
13-Dec-17 09:46 35.030997 -106.624282 314 5316ft 0kts
13-Dec-17 09:47 35.030997 -106.624282 314 5316ft 0kts
13-Dec-17 09:48 35.030997 -106.624282 314 5316ft 0kts
13-Dec-17 09:49 35.030997 -106.624282 314 5316ft 0kts
13-Dec-17 09:50 35.030997 -106.624282 314 5316ft 0kts
13-Dec-17 09:52 35.030997 -106.624282 314 5316ft 0kts
13-Dec-17 09:53 35.030997 -106.624282 314 5316ft 0kts
13-Dec-17 09:54 35.030997 -106.624282 314 5316ft 0kts
13-Dec-17 09:55 35.030914 -106.624178 313 5316ft 2kts
13-Dec-17 09:56 35.030429 -106.623935 39 5316ft 0kts
13-Dec-17 09:57 35.030373 -106.624009 44 5316ft 0kts
13-Dec-17 09:58 35.030381 -106.623998 44 5316ft 0kts
13-Dec-17 09:59 35.031597 -106.621459 44 5316ft 15kts
13-Dec-17 10:00 35.035485 -106.616765 44 5316ft 21kts
13-Dec-17 10:01 35.038358 -106.614602 307 5316ft 11kts
13-Dec-17 10:02 35.041209 -106.619071 306 5316ft 18kts
13-Dec-17 10:03 35.042745 -106.621336 331 5316ft 0kts
13-Dec-17 10:04 35.043649 -106.621418 359 5316ft 12kts
13-Dec-17 10:05 35.044281 -106.609908 90 5316ft 118kts
13-Dec-17 10:06 35.044167 -106.550585 97 6779ft 203kts
13-Dec-17 10:07 35.081389 -106.516031 323 7994ft 257kts
13-Dec-17 10:08 35.135210 -106.583670 312 10342ft 288kts
13-Dec-17 10:09 35.186261 -106.650467 312 12803ft 298kts
13-Dec-17 10:10 35.241830 -106.723035 314 15548ft 305kts
13-Dec-17 10:11 35.322273 -106.783360 326 17316ft 363kts
13-Dec-17 10:12 35.398142 -106.840651 330 19728ft 377kts
13-Dec-17 10:13 35.495512 -106.872375 355 22928ft 365kts
13-Dec-17 10:14 35.597545 -106.887805 355 25106ft 385kts
13-Dec-17 10:15 35.708129 -106.904798 354 26709ft 415kts
13-Dec-17 10:16 35.822483 -106.922431 351 29156ft 414kts
13-Dec-17 10:17 35.933010 -106.939515 349 32079ft 388kts
13-Dec-17 10:18 36.034263 -106.975141 339 33810ft 383kts
13-Dec-17 10:19 36.130766 -107.011377 339 35385ft 377kts
13-Dec-17 10:20 36.225739 -107.046956 339 36249ft 385kts
13-Dec-17 10:21 36.331466 -107.086503 339 36250ft 415kts
13-Dec-17 10:22 36.445119 -107.128952 339 36239ft 437kts
13-Dec-17 10:23 36.560633 -107.172111 339 36236ft 435kts
13-Dec-17 10:24 36.675605 -107.215100 339 36236ft 434kts
13-Dec-17 10:25 36.787886 -107.257052 339 36237ft 422kts
13-Dec-17 10:26 36.896401 -107.297723 343 35565ft 406kts
13-Dec-17 10:27 37.004887 -107.338231 343 34551ft 410kts
13-Dec-17 10:28 37.112854 -107.378582 343 33543ft 413kts
13-Dec-17 10:29 37.213834 -107.416287 342 32449ft 403kts
13-Dec-17 10:30 37.276027 -107.439593 343 31750ft 398kts
13-Dec-17 10:31 37.410518 -107.489851 343 30204ft 389kts
13-Dec-17 10:32 37.512858 -107.528101 343 28995ft 381kts
13-Dec-17 10:33 37.610907 -107.564743 343 27960ft 375kts
13-Dec-17 10:34 37.709728 -107.601667 343 26940ft 369kts
13-Dec-17 10:35 37.806756 -107.637918 343 25915ft 363kts
13-Dec-17 10:36 37.899577 -107.672645 342 24923ft 356kts
13-Dec-17 10:37 37.981178 -107.703149 342 24296ft 350kts
13-Dec-17 10:38 38.073709 -107.737715 342 24287ft 352kts
13-Dec-17 10:39 38.163056 -107.771082 342 24295ft 353kts
13-Dec-17 10:40 38.246886 -107.802383 342 23606ft 346kts
13-Dec-17 10:41 38.337332 -107.836156 342 22831ft 342kts
13-Dec-17 10:42 38.424248 -107.868605 342 22072ft 339kts
13-Dec-17 10:43 38.513416 -107.890677 6 21290ft 340kts
13-Dec-17 10:44 38.598731 -107.844638 21 20530ft 342kts
13-Dec-17 10:45 38.683695 -107.793723 20 19729ft 338kts
13-Dec-17 10:46 38.758297 -107.722098 38 19200ft 348kts
13-Dec-17 10:47 38.827488 -107.638515 38 18690ft 341kts
13-Dec-17 10:48 38.892856 -107.559898 41 18130ft 324kts
13-Dec-17 10:49 38.958397 -107.480945 42 17643ft 324kts
13-Dec-17 10:50 39.023216 -107.402479 42 17131ft 321kts
13-Dec-17 10:51 39.079888 -107.333886 43 16968ft 277kts
13-Dec-17 10:52 39.128181 -107.275257 43 16992ft 256kts
13-Dec-17 10:53 39.171907 -107.222663 31 16963ft 259kts
13-Dec-17 10:54 39.242907 -107.203241 9 15662ft 259kts
13-Dec-17 10:55 39.310762 -107.189292 9 14998ft 246kts
13-Dec-17 10:56 39.375358 -107.175998 9 14980ft 222kts
13-Dec-17 10:57 39.436637 -107.163374 9 14590ft 225kts
13-Dec-17 10:58 39.496664 -107.150933 12 13579ft 217kts
13-Dec-17 10:59 39.503897 -107.085693 109 13045ft 214kts
13-Dec-17 11:00 39.477320 -107.017322 128 13045ft 216kts
13-Dec-17 11:01 39.436655 -106.964026 167 13047ft 202kts
13-Dec-17 11:02 39.384716 -106.945334 161 12894ft 192kts
13-Dec-17 11:03 39.346211 -106.927581 159 12088ft 172kts
13-Dec-17 11:05 39.253052 -106.883296 0 8432ft 0kts

Navigation Log

Ident Type
Flight plan parsing failed, navigation log unavailable